Time;durP1;ratioP1;P1;durP2;ratioP2;P2;SDS_P1;SDS_P2;PMS_P1;PMS_P2;Temp;Humidity;BMP_temperature;BMP_pressure;BME280_temperature;BME280_humidity;BME280_pressure;Samples;Min_cycle;Max_cycle;Signal;HPM_P1;HPM_P2
2021/05/11 00:00:38;;;;;;;16.97;11.60;;;14.00;89.70;;;;;;5135170;27;20086;-70
2021/05/11 00:03:04;;;;;;;14.73;12.00;;;14.00;89.50;;;;;;5135084;27;20054;-70
2021/05/11 00:05:31;;;;;;;18.67;13.20;;;14.00;89.50;;;;;;5134104;27;20134;-70
2021/05/11 00:07:57;;;;;;;16.60;12.40;;;14.00;89.60;;;;;;5135053;27;20058;-70
2021/05/11 00:10:25;;;;;;;14.37;11.33;;;14.00;89.60;;;;;;5134916;27;20094;-70
2021/05/11 00:12:51;;;;;;;17.67;12.33;;;14.00;89.60;;;;;;5134100;27;20066;-70
2021/05/11 00:15:17;;;;;;;17.30;12.87;;;14.00;90.00;;;;;;5134695;27;20475;-70
2021/05/11 00:17:45;;;;;;;14.37;11.20;;;14.00;89.60;;;;;;5134508;27;20055;-71
2021/05/11 00:20:12;;;;;;;21.07;11.37;;;14.00;89.50;;;;;;5134047;27;20043;-71
2021/05/11 00:22:37;;;;;;;15.50;10.93;;;13.90;89.30;;;;;;5134747;27;20130;-70
2021/05/11 00:25:03;;;;;;;16.80;9.73;;;13.80;89.50;;;;;;5134597;27;20130;-70
2021/05/11 00:27:29;;;;;;;18.97;10.47;;;13.80;90.20;;;;;;5133817;27;20130;-71
2021/05/11 00:29:55;;;;;;;15.77;9.63;;;13.80;89.50;;;;;;5134403;27;20063;-70
2021/05/11 00:32:21;;;;;;;17.73;9.70;;;13.70;89.50;;;;;;5133441;27;20074;-71
2021/05/11 00:34:48;;;;;;;13.03;8.67;;;13.60;89.80;;;;;;5134052;27;20100;-70
2021/05/11 00:37:14;;;;;;;15.07;8.80;;;13.60;89.80;;;;;;5134427;27;20043;-71
2021/05/11 00:39:39;;;;;;;14.07;8.87;;;13.50;89.70;;;;;;5133791;27;20043;-70
2021/05/11 00:42:05;;;;;;;15.37;9.83;;;13.50;89.60;;;;;;5134180;27;20415;-70
2021/05/11 00:44:32;;;;;;;15.50;9.83;;;13.40;89.70;;;;;;5134250;27;20068;-70
2021/05/11 00:47:04;;;;;;;16.57;9.43;;;13.40;89.80;;;;;;5133210;27;20504;-70
2021/05/11 00:49:32;;;;;;;19.83;10.57;;;13.30;89.60;;;;;;5134165;27;20133;-70
2021/05/11 00:51:59;;;;;;;15.97;8.83;;;13.30;89.70;;;;;;5133955;27;20043;-70
2021/05/11 00:54:26;;;;;;;18.97;9.77;;;13.30;89.90;;;;;;5133199;27;20145;-70
2021/05/11 00:56:52;;;;;;;15.37;9.63;;;13.20;90.30;;;;;;5133777;27;20096;-70
2021/05/11 00:59:22;;;;;;;18.03;10.03;;;13.20;89.90;;;;;;5133945;27;20075;-71
2021/05/11 01:01:48;;;;;;;18.30;9.97;;;13.20;89.80;;;;;;5133243;27;20055;-70
2021/05/11 01:04:14;;;;;;;15.90;8.43;;;13.20;90.00;;;;;;5133592;27;20096;-71
2021/05/11 01:06:41;;;;;;;20.07;10.03;;;13.10;90.00;;;;;;5134008;27;20126;-70
2021/05/11 01:09:07;;;;;;;16.77;10.53;;;13.10;90.10;;;;;;5133507;27;20051;-70
2021/05/11 01:11:34;;;;;;;17.93;9.83;;;13.10;90.30;;;;;;5133613;27;20039;-71
2021/05/11 01:14:00;;;;;;;19.67;10.57;;;13.10;90.40;;;;;;5133358;27;20039;-71
2021/05/11 01:16:28;;;;;;;20.83;10.80;;;13.10;90.50;;;;;;5132304;27;20051;-70
2021/05/11 01:19:01;;;;;;;19.10;11.93;;;13.10;90.60;;;;;;5133734;27;20100;-70
2021/05/11 01:26:56;;;;;;;21.57;12.03;;;13.10;90.70;;;;;;5133409;27;20078;-71
2021/05/11 01:32:17;;;;;;;15.10;11.23;;;13.20;90.70;;;;;;5132875;27;20514;-70
2021/05/11 01:45:57;;;;;;;19.10;13.57;;;13.30;90.80;;;;;;5133009;27;20051;-70
2021/05/11 01:51:31;;;;;;;21.43;14.47;;;13.30;91.00;;;;;;5110303;27;20478;-71
2021/05/11 01:54:22;;;;;;;18.97;12.30;;;13.20;90.90;;;;;;5132533;27;20095;-70
2021/05/11 02:10:59;;;;;;;19.50;14.37;;;13.10;91.30;;;;;;5132516;27;20069;-71
2021/05/11 02:24:22;;;;;;;23.47;16.83;;;12.90;91.90;;;;;;5132532;27;20108;-70
2021/05/11 02:26:48;;;;;;;23.23;16.33;;;12.90;92.00;;;;;;5131755;28;20479;-70
2021/05/11 02:29:14;;;;;;;22.10;17.07;;;12.90;92.00;;;;;;5132181;28;20102;-70
2021/05/11 02:31:39;;;;;;;21.00;14.47;;;13.00;92.20;;;;;;5132677;28;20047;-70
2021/05/11 02:34:05;;;;;;;22.53;16.43;;;13.00;92.10;;;;;;5131615;27;20544;-70
2021/05/11 02:36:31;;;;;;;20.20;15.47;;;13.10;92.10;;;;;;5132236;28;20043;-70
2021/05/11 02:38:57;;;;;;;21.07;15.83;;;13.00;92.10;;;;;;5131648;27;20047;-70
2021/05/11 02:41:23;;;;;;;27.50;17.83;;;13.00;92.10;;;;;;5132126;28;20060;-70
2021/05/11 02:43:48;;;;;;;24.83;15.90;;;12.90;92.20;;;;;;5132321;28;20403;-70
2021/05/11 02:46:14;;;;;;;22.93;17.07;;;12.90;92.30;;;;;;5132643;27;20043;-70
2021/05/11 02:48:40;;;;;;;22.43;17.73;;;12.90;92.40;;;;;;5136755;27;20410;-70
2021/05/11 02:51:05;;;;;;;26.20;18.00;;;12.80;92.50;;;;;;5136532;27;20039;-71
2021/05/11 02:53:31;;;;;;;19.73;15.37;;;12.80;92.60;;;;;;5135610;27;20047;-69
2021/05/11 02:55:56;;;;;;;22.60;15.77;;;12.80;92.60;;;;;;5135976;27;20502;-70
2021/05/11 02:58:23;;;;;;;23.07;17.77;;;12.80;92.80;;;;;;5136328;27;20055;-70
2021/05/11 03:00:49;;;;;;;22.07;17.13;;;12.70;92.80;;;;;;5135388;27;20066;-70
2021/05/11 03:03:14;;;;;;;23.93;18.80;;;12.70;92.80;;;;;;5136116;27;20039;-69
2021/05/11 03:05:40;;;;;;;25.17;18.23;;;12.70;92.90;;;;;;5136267;27;20051;-69
2021/05/11 03:08:06;;;;;;;24.37;19.00;;;12.70;93.10;;;;;;5135727;27;20043;-69
2021/05/11 03:10:31;;;;;;;20.03;16.53;;;12.70;93.10;;;;;;5135977;27;20406;-69
2021/05/11 03:12:57;;;;;;;24.70;17.73;;;12.80;93.20;;;;;;5136032;27;20085;-69
2021/05/11 03:15:23;;;;;;;22.87;17.33;;;12.80;93.20;;;;;;5135187;27;20054;-69
2021/05/11 03:17:48;;;;;;;22.13;19.10;;;12.80;93.20;;;;;;5135739;27;20140;-69
2021/05/11 03:20:14;;;;;;;24.33;19.73;;;12.80;93.20;;;;;;5135979;27;20046;-69
2021/05/11 03:22:41;;;;;;;25.93;18.30;;;12.80;93.10;;;;;;5135054;27;20070;-70
2021/05/11 03:25:07;;;;;;;26.47;18.70;;;12.80;93.10;;;;;;5135929;27;20530;-70
2021/05/11 03:27:33;;;;;;;31.20;20.27;;;12.70;93.10;;;;;;5135451;27;20074;-69
2021/05/11 03:29:58;;;;;;;23.93;18.60;;;12.70;93.30;;;;;;5134630;27;20074;-69
2021/05/11 03:32:24;;;;;;;21.03;17.93;;;12.70;93.50;;;;;;5135520;27;20082;-69
2021/05/11 03:34:50;;;;;;;22.20;18.17;;;12.80;93.50;;;;;;5135379;27;20095;-69
2021/05/11 03:37:15;;;;;;;26.97;18.40;;;12.80;93.50;;;;;;5134727;27;20050;-70
2021/05/11 03:39:43;;;;;;;29.53;20.10;;;12.90;93.40;;;;;;5135516;27;20251;-69
2021/05/11 03:42:15;;;;;;;26.00;20.00;;;12.90;93.40;;;;;;5135149;27;20039;-69
2021/05/11 03:44:43;;;;;;;26.63;19.03;;;12.90;93.50;;;;;;5134723;27;20500;-69
2021/05/11 03:47:09;;;;;;;22.07;17.13;;;12.90;93.30;;;;;;5134893;27;20058;-69
2021/05/11 03:49:35;;;;;;;25.37;18.83;;;12.90;93.30;;;;;;5134079;27;20043;-69
2021/05/11 03:52:00;;;;;;;28.80;20.90;;;12.90;93.50;;;;;;5134556;27;20051;-69
2021/05/11 03:54:27;;;;;;;27.93;22.37;;;12.90;93.60;;;;;;5134273;27;20486;-68
2021/05/11 03:56:54;;;;;;;28.83;21.67;;;12.80;93.60;;;;;;5133367;27;20075;-69
2021/05/11 03:59:21;;;;;;;26.33;21.07;;;12.80;93.70;;;;;;5133858;27;20075;-69
2021/05/11 04:01:47;;;;;;;25.13;20.73;;;12.80;93.80;;;;;;5134325;27;20125;-68
2021/05/11 04:04:13;;;;;;;24.67;19.97;;;12.80;93.80;;;;;;5133899;27;20043;-69
2021/05/11 04:06:40;;;;;;;13.37;11.93;;;12.80;93.90;;;;;;5134753;27;20054;-69
2021/05/11 04:09:28;;;;;;;20.60;17.57;;;12.90;93.80;;;;;;5134276;27;20510;-69
2021/05/11 04:12:13;;;;;;;15.37;12.37;;;12.90;93.80;;;;;;5133659;27;20069;-68
2021/05/11 04:17:24;;;;;;;15.13;12.13;;;12.90;93.60;;;;;;5133200;27;20154;-69
2021/05/11 04:19:49;;;;;;;11.30;10.10;;;12.90;93.60;;;;;;5134165;27;20076;-69
2021/05/11 04:22:21;;;;;;;13.35;11.45;;;12.90;93.50;;;;;;5134082;27;20051;-69
2021/05/11 04:24:46;;;;;;;13.13;10.97;;;12.90;93.50;;;;;;5132935;27;20367;-69
2021/05/11 04:27:12;;;;;;;12.20;11.00;;;13.00;93.50;;;;;;5134135;27;20068;-69
2021/05/11 04:29:38;;;;;;;14.47;10.73;;;12.90;93.50;;;;;;5134246;27;20138;-69
2021/05/11 04:32:04;;;;;;;11.90;9.60;;;13.00;93.50;;;;;;5133021;27;20039;-68
2021/05/11 04:34:34;;;;;;;9.63;8.17;;;12.90;93.50;;;;;;5133471;27;20323;-69
2021/05/11 04:36:59;;;;;;;10.27;9.17;;;12.90;93.50;;;;;;5133452;27;20505;-69
2021/05/11 04:39:25;;;;;;;12.57;8.80;;;12.90;93.50;;;;;;5132984;27;20055;-69
2021/05/11 04:41:51;;;;;;;9.53;7.40;;;12.90;93.50;;;;;;5133709;27;20051;-69
2021/05/11 04:44:20;;;;;;;9.47;7.33;;;12.90;93.50;;;;;;5133397;27;20050;-69
2021/05/11 04:46:56;;;;;;;8.77;7.87;;;12.90;93.50;;;;;;5132210;27;20163;-69
2021/05/11 04:49:23;;;;;;;9.10;7.37;;;12.90;93.40;;;;;;5131548;27;20047;-69
2021/05/11 04:51:49;;;;;;;9.47;7.93;;;12.90;93.50;;;;;;5133520;27;20163;-69
2021/05/11 04:54:15;;;;;;;10.60;7.80;;;12.90;93.40;;;;;;5132675;27;20051;-69
2021/05/11 04:56:46;;;;;;;6.50;5.90;;;12.90;93.80;;;;;;5133379;27;20044;-69
2021/05/11 04:59:12;;;;;;;10.13;7.18;;;12.90;93.30;;;;;;5133486;27;20055;-69
2021/05/11 05:01:39;;;;;;;6.07;5.47;;;12.90;93.30;;;;;;5132744;27;20039;-70
2021/05/11 05:04:08;;;;;;;8.57;7.47;;;12.90;93.30;;;;;;5132306;27;20091;-70
2021/05/11 05:06:34;;;;;;;12.23;6.30;;;12.80;93.20;;;;;;5131626;27;20051;-69
2021/05/11 05:09:05;;;;;;;7.60;6.85;;;12.80;93.50;;;;;;5132394;27;20042;-70
2021/05/11 05:11:33;;;;;;;7.07;5.93;;;12.80;93.50;;;;;;5132774;27;20046;-69
2021/05/11 05:13:59;;;;;;;7.07;5.43;;;12.80;93.60;;;;;;5131943;27;20035;-70
2021/05/11 05:16:28;;;;;;;7.30;5.70;;;12.80;93.60;;;;;;5130262;27;20103;-71
2021/05/11 05:18:56;;;;;;;7.53;6.73;;;12.80;93.60;;;;;;5132577;27;20043;-70
2021/05/11 05:21:22;;;;;;;8.27;7.00;;;12.80;93.60;;;;;;5131373;27;20097;-70
2021/05/11 05:23:50;;;;;;;9.60;7.33;;;12.80;93.60;;;;;;5131541;27;20416;-70
2021/05/11 05:26:20;;;;;;;9.07;8.00;;;12.80;93.70;;;;;;5132837;27;20062;-70
2021/05/11 05:28:46;;;;;;;9.43;7.97;;;12.80;93.70;;;;;;5131739;27;20496;-70
2021/05/11 05:31:11;;;;;;;11.63;9.57;;;12.80;93.70;;;;;;5132802;27;20043;-70
2021/05/11 05:33:39;;;;;;;11.13;9.80;;;12.80;93.70;;;;;;5132028;27;20497;-70
2021/05/11 05:36:07;;;;;;;12.50;11.20;;;12.80;93.80;;;;;;5132019;27;20058;-69
2021/05/11 05:38:35;;;;;;;12.67;11.37;;;12.80;93.80;;;;;;5132466;27;20051;-70
2021/05/11 05:41:04;;;;;;;13.97;12.67;;;12.90;93.90;;;;;;5132374;27;20051;-70
2021/05/11 05:43:32;;;;;;;12.23;10.90;;;12.90;93.90;;;;;;5131712;27;20473;-69
2021/05/11 05:45:58;;;;;;;14.50;12.30;;;12.90;93.90;;;;;;5132056;27;20047;-69
2021/05/11 05:48:24;;;;;;;15.17;13.53;;;12.90;94.00;;;;;;5132097;27;20055;-70
2021/05/11 05:50:56;;;;;;;17.80;16.03;;;12.90;94.00;;;;;;5131272;27;20039;-69
2021/05/11 05:53:29;;;;;;;17.60;15.73;;;13.00;94.10;;;;;;5131888;27;20081;-70
2021/05/11 05:55:55;;;;;;;18.73;16.73;;;13.00;94.20;;;;;;5131239;27;20117;-70
2021/05/11 05:58:22;;;;;;;17.07;15.33;;;13.00;94.20;;;;;;5131938;27;20082;-70
2021/05/11 06:00:52;;;;;;;18.13;16.40;;;13.10;94.20;;;;;;5131914;27;20495;-70
2021/05/11 06:03:38;;;;;;;19.80;16.77;;;13.10;94.20;;;;;;5131092;27;20479;-70
2021/05/11 06:06:08;;;;;;;15.23;13.67;;;13.20;94.20;;;;;;5131702;27;20054;-70
2021/05/11 06:08:36;;;;;;;18.97;16.23;;;13.30;94.20;;;;;;5131762;27;20134;-70
2021/05/11 06:14:04;;;;;;;9.55;8.20;;;13.40;94.20;;;;;;5131516;27;20483;-70
2021/05/11 06:19:15;;;;;;;7.80;7.10;;;13.50;94.00;;;;;;5130740;27;20050;-70
2021/05/11 06:21:42;;;;;;;7.20;5.80;;;13.50;94.00;;;;;;5131351;27;20054;-71
2021/05/11 06:24:08;;;;;;;7.50;6.77;;;13.60;93.80;;;;;;5131241;27;20057;-69
2021/05/11 06:26:34;;;;;;;6.37;5.77;;;13.60;93.80;;;;;;5131394;27;20043;-69
2021/05/11 06:29:02;;;;;;;6.63;6.03;;;13.60;93.80;;;;;;5131518;27;20047;-70
2021/05/11 06:31:28;;;;;;;4.63;3.90;;;13.60;93.80;;;;;;5130670;27;20055;-70
2021/05/11 06:33:54;;;;;;;5.73;3.40;;;13.60;93.80;;;;;;5131331;27;20043;-70
2021/05/11 06:36:21;;;;;;;6.47;3.60;;;13.60;93.70;;;;;;5131662;27;20051;-70
2021/05/11 06:38:55;;;;;;;5.17;3.23;;;13.60;93.70;;;;;;5130806;27;20051;-70
2021/05/11 06:41:21;;;;;;;3.63;2.57;;;13.60;93.70;;;;;;5131584;28;20061;-70
2021/05/11 06:43:52;;;;;;;3.23;1.97;;;13.60;93.60;;;;;;5131658;27;20061;-71
2021/05/11 06:54:13;;;;;;;5.00;1.83;;;13.40;93.10;;;;;;5131288;28;20096;-70
2021/05/11 06:56:45;;;;;;;2.30;1.73;;;13.40;93.10;;;;;;5131991;28;20085;-70
2021/05/11 06:59:14;;;;;;;3.83;1.50;;;13.50;93.10;;;;;;5131183;27;20494;-70
2021/05/11 07:01:40;;;;;;;3.80;1.70;;;13.50;93.10;;;;;;5131164;28;20556;-70
2021/05/11 07:04:05;;;;;;;3.27;2.10;;;13.50;93.00;;;;;;5130736;27;20114;-70
2021/05/11 07:06:31;;;;;;;4.23;2.03;;;13.50;92.80;;;;;;5130795;28;20055;-70
2021/05/11 07:09:04;;;;;;;6.57;2.10;;;13.60;92.90;;;;;;5132118;28;20092;-70
2021/05/11 07:13:08;;;;;;;5.27;2.00;;;13.60;92.80;;;;;;5132288;28;20139;-70
2021/05/11 07:14:16;;;;;;;2.83;1.63;;;13.70;92.80;;;;;;5131114;28;20111;-70
2021/05/11 07:16:42;;;;;;;4.57;1.83;;;13.70;92.70;;;;;;5131892;27;20070;-71
2021/05/11 07:19:07;;;;;;;3.37;2.23;;;13.70;92.70;;;;;;5132287;28;20087;-70
2021/05/11 07:21:33;;;;;;;7.00;2.63;;;13.70;92.70;;;;;;5131064;28;20043;-71
2021/05/11 07:24:02;;;;;;;4.27;2.97;;;13.70;92.70;;;;;;5131696;28;20539;-70
2021/05/11 07:26:29;;;;;;;5.03;3.57;;;13.80;92.70;;;;;;5131653;28;20039;-70
2021/05/11 07:31:57;;;;;;;5.20;3.43;;;13.80;92.80;;;;;;5087987;28;20491;-71
2021/05/11 07:34:22;;;;;;;6.17;4.03;;;13.80;92.80;;;;;;5124416;27;20088;-71
2021/05/11 07:36:48;;;;;;;5.93;4.17;;;13.80;92.80;;;;;;5135130;27;20144;-71
2021/05/11 07:39:14;;;;;;;7.07;4.70;;;13.80;92.80;;;;;;5135592;27;20099;-72
2021/05/11 07:41:39;;;;;;;6.67;4.90;;;13.80;92.80;;;;;;5134723;27;20047;-71
2021/05/11 07:44:06;;;;;;;7.37;5.93;;;13.80;93.00;;;;;;5135402;27;20071;-72
2021/05/11 07:49:25;;;;;;;7.70;6.90;;;13.90;92.90;;;;;;5133864;27;20386;-71
2021/05/11 08:03:08;;;;;;;7.90;7.10;;;14.20;92.90;;;;;;5132465;27;20708;-71
2021/05/11 08:05:28;;;;;;;8.63;7.77;;;14.30;93.20;;;;;;5134125;27;20043;-71
2021/05/11 08:15:59;;;;;;;11.30;10.10;;;14.60;92.60;;;;;;5134459;27;20057;-71
2021/05/11 08:18:48;;;;;;;11.50;10.30;;;14.60;92.50;;;;;;5133805;27;20051;-71
2021/05/11 08:29:24;;;;;;;11.87;10.77;;;14.90;92.10;;;;;;5133846;27;20047;-71
2021/05/11 08:31:50;;;;;;;11.73;9.80;;;14.90;92.00;;;;;;5132975;27;20043;-71
2021/05/11 08:34:15;;;;;;;8.57;7.50;;;15.00;92.00;;;;;;5134042;27;20126;-71
2021/05/11 08:36:41;;;;;;;8.60;7.63;;;15.00;91.70;;;;;;5133802;27;20179;-71
2021/05/11 08:39:07;;;;;;;7.50;6.00;;;15.10;91.50;;;;;;5133832;27;20051;-71
2021/05/11 08:41:32;;;;;;;7.70;5.87;;;15.10;91.40;;;;;;5134106;27;20103;-70
2021/05/11 08:43:58;;;;;;;7.33;5.10;;;15.20;91.30;;;;;;5134144;27;20049;-71
2021/05/11 08:46:24;;;;;;;6.83;5.20;;;15.20;91.20;;;;;;5133030;27;20499;-71
2021/05/11 08:48:51;;;;;;;5.63;4.70;;;15.30;91.10;;;;;;5133831;27;20080;-71
2021/05/11 08:51:27;;;;;;;7.27;4.90;;;15.30;90.80;;;;;;5133988;27;20043;-71
2021/05/11 08:54:18;;;;;;;5.77;4.00;;;15.30;90.70;;;;;;5133140;27;20051;-71
2021/05/11 09:05:15;;;;;;;4.93;3.60;;;15.40;90.10;;;;;;5133942;27;20043;-71
2021/05/11 09:27:21;;;;;;;1.60;1.23;;;15.90;85.30;;;;;;5132724;27;20111;-72
2021/05/11 09:45:05;;;;;;;3.53;1.20;;;16.00;83.40;;;;;;5133261;27;20043;-71
2021/05/11 10:10:56;;;;;;;1.90;0.80;;;16.60;80.40;;;;;;5129681;27;20039;-70
2021/05/11 10:41:33;;;;;;;2.47;1.40;;;16.50;80.20;;;;;;5131994;27;20130;-71
2021/05/11 10:49:34;;;;;;;3.73;1.70;;;16.50;80.30;;;;;;5132080;28;20088;-71
2021/05/11 10:52:08;;;;;;;2.50;1.50;;;16.50;80.20;;;;;;5131458;27;20411;-71
2021/05/11 10:54:57;;;;;;;3.13;2.07;;;16.40;80.30;;;;;;5131972;27;20055;-71
2021/05/11 10:57:47;;;;;;;1.87;1.67;;;16.40;80.70;;;;;;5131653;27;20058;-72
2021/05/11 11:00:35;;;;;;;3.03;1.67;;;16.40;80.40;;;;;;5131421;27;20088;-71
2021/05/11 11:03:15;;;;;;;2.87;1.40;;;16.40;80.10;;;;;;5131486;27;20058;-71
2021/05/11 11:05:43;;;;;;;3.43;2.20;;;16.50;81.30;;;;;;5130941;27;20498;-72
2021/05/11 11:08:43;;;;;;;4.10;2.53;;;16.50;80.70;;;;;;5133152;27;20047;-71
2021/05/11 11:11:14;;;;;;;4.50;2.77;;;16.60;80.40;;;;;;5102291;27;20076;-71
2021/05/11 11:13:51;;;;;;;4.57;2.90;;;16.70;80.50;;;;;;5135575;27;20051;-71
2021/05/11 11:16:18;;;;;;;4.97;3.50;;;16.70;80.40;;;;;;5135614;27;20134;-70
2021/05/11 11:18:45;;;;;;;5.40;3.67;;;16.80;80.30;;;;;;5135313;27;20047;-71
2021/05/11 11:23:53;;;;;;;3.80;2.40;;;16.90;80.20;;;;;;5135880;27;20047;-71
2021/05/11 11:26:25;;;;;;;3.83;2.80;;;17.10;79.40;;;;;;5135414;27;20505;-72
2021/05/11 11:29:06;;;;;;;4.03;3.00;;;17.20;78.40;;;;;;5135617;27;20059;-71
2021/05/11 11:31:50;;;;;;;3.25;2.20;;;17.10;79.00;;;;;;5135519;27;20051;-72
2021/05/11 11:34:36;;;;;;;3.63;2.10;;;16.90;78.80;;;;;;5134383;27;20141;-71
2021/05/11 11:37:14;;;;;;;4.83;2.53;;;16.70;79.60;;;;;;5135242;27;20122;-71
2021/05/11 11:39:46;;;;;;;3.23;1.80;;;16.50;80.10;;;;;;5135752;27;20043;-71
2021/05/11 11:42:28;;;;;;;1.60;1.50;;;16.40;80.30;;;;;;5134897;27;20043;-71
2021/05/11 11:45:04;;;;;;;1.63;1.27;;;16.40;80.40;;;;;;5135328;27;20076;-71
2021/05/11 11:47:32;;;;;;;2.57;1.40;;;16.30;80.50;;;;;;5134586;27;20046;-71
2021/05/11 11:50:00;;;;;;;3.33;1.90;;;16.40;80.20;;;;;;5134777;27;20491;-71
2021/05/11 12:00:30;;;;;;;4.13;1.40;;;16.60;79.60;;;;;;5114543;28;20104;-71
2021/05/11 12:03:01;;;;;;;4.33;1.43;;;16.70;79.10;;;;;;5113177;28;20105;-70
2021/05/11 12:05:30;;;;;;;2.80;1.30;;;16.80;79.00;;;;;;5115238;27;20050;-71
2021/05/11 12:08:04;;;;;;;2.03;1.23;;;16.90;79.50;;;;;;5134405;27;20058;-72
2021/05/11 12:10:31;;;;;;;3.67;1.50;;;16.90;77.90;;;;;;5133793;27;20055;-71
2021/05/11 12:13:01;;;;;;;2.77;1.43;;;16.90;77.70;;;;;;5134292;27;20054;-72
2021/05/11 12:15:27;;;;;;;2.30;1.60;;;16.80;77.70;;;;;;5134489;27;20055;-72
2021/05/11 12:18:20;;;;;;;6.77;1.90;;;16.70;77.80;;;;;;5133594;27;20104;-72
2021/05/11 12:20:57;;;;;;;2.07;1.30;;;16.70;76.80;;;;;;5131761;27;20096;-71
2021/05/11 12:23:23;;;;;;;3.93;1.80;;;16.60;77.80;;;;;;5133571;27;20548;-72
2021/05/11 12:26:01;;;;;;;2.93;1.40;;;16.50;78.00;;;;;;5132135;27;20044;-70
2021/05/11 12:28:43;;;;;;;3.67;2.40;;;16.40;78.20;;;;;;5131181;27;20084;-68
2021/05/11 12:31:09;;;;;;;;;;;16.30;78.70;;;;;;5134655;27;20043;-68
2021/05/11 12:33:43;;;;;;;3.73;1.97;;;16.10;79.80;;;;;;5133780;27;19922;-71
2021/05/11 12:36:25;;;;;;;6.00;2.30;;;16.10;80.00;;;;;;5134246;27;20127;-70
2021/05/11 12:39:12;;;;;;;4.50;2.47;;;15.90;80.60;;;;;;5133453;27;20067;-69
2021/05/11 12:41:38;;;;;;;4.87;2.83;;;15.90;81.40;;;;;;5134402;27;20051;-68
2021/05/11 12:44:05;;;;;;;6.57;3.37;;;16.00;81.90;;;;;;5132759;27;20051;-69
2021/05/11 12:46:37;;;;;;;5.23;3.37;;;16.10;82.30;;;;;;5133494;27;20043;-69
2021/05/11 12:49:18;;;;;;;10.87;3.80;;;16.10;81.90;;;;;;5133900;27;20051;-68
2021/05/11 12:51:51;;;;;;;2.80;2.33;;;16.20;82.10;;;;;;5132899;27;20068;-69
2021/05/11 12:54:37;;;;;;;6.40;2.50;;;16.20;81.70;;;;;;5133673;27;20054;-67
2021/05/11 13:16:21;;;;;;;2.97;1.10;;;16.00;81.20;;;;;;5133219;27;20483;-69
2021/05/11 13:30:31;;;;;;;3.37;1.70;;;15.90;82.70;;;;;;5133052;27;20043;-69
2021/05/11 13:34:57;;;;;;;3.53;2.20;;;15.80;83.80;;;;;;5132029;27;20521;-69
2021/05/11 13:37:27;;;;;;;2.80;2.10;;;15.70;84.20;;;;;;5132978;27;20134;-70
2021/05/11 13:39:54;;;;;;;2.33;1.70;;;15.60;84.60;;;;;;5133028;27;20130;-68
2021/05/11 13:42:19;;;;;;;2.87;1.83;;;15.50;84.80;;;;;;5131793;27;20356;-68
2021/05/11 13:44:48;;;;;;;2.60;1.90;;;15.40;85.40;;;;;;5132914;27;20039;-68
2021/05/11 13:47:14;;;;;;;3.10;2.17;;;15.30;85.80;;;;;;5132076;27;20059;-67
2021/05/11 13:49:40;;;;;;;2.60;2.20;;;15.20;86.10;;;;;;5132928;27;20043;-68
2021/05/11 13:52:05;;;;;;;2.73;2.30;;;15.10;86.40;;;;;;5132532;27;20071;-68
2021/05/11 13:54:31;;;;;;;4.47;2.80;;;15.00;86.80;;;;;;5131425;27;20044;-68
2021/05/11 14:02:33;;;;;;;3.43;2.50;;;14.60;87.80;;;;;;5131892;27;20051;-68
2021/05/11 14:04:59;;;;;;;;;;;14.50;88.00;;;;;;5133018;27;20051;-68
2021/05/11 14:07:25;;;;;;;5.17;4.43;;;14.40;88.40;;;;;;5132391;27;19972;-68
2021/05/11 14:09:50;;;;;;;6.17;4.57;;;14.30;88.30;;;;;;5131144;27;20108;-68
2021/05/11 14:12:16;;;;;;;5.07;4.43;;;14.20;88.80;;;;;;5132267;27;20074;-68
2021/05/11 14:14:41;;;;;;;6.27;4.77;;;14.20;89.20;;;;;;5131684;27;20112;-69
2021/05/11 14:17:07;;;;;;;6.43;5.10;;;14.20;89.30;;;;;;5131361;27;20051;-68
2021/05/11 14:19:33;;;;;;;6.03;5.30;;;14.20;89.60;;;;;;5132102;27;20043;-69
2021/05/11 14:21:59;;;;;;;5.03;3.07;;;14.20;89.60;;;;;;5132165;27;20444;-69
2021/05/11 14:24:25;;;;;;;4.27;1.60;;;14.20;89.60;;;;;;5131375;27;20073;-69
2021/05/11 14:26:51;;;;;;;2.70;1.57;;;14.20;89.10;;;;;;5131975;27;20464;-70
2021/05/11 14:29:16;;;;;;;3.27;1.23;;;14.20;88.90;;;;;;5131449;27;20460;-70
2021/05/11 14:31:42;;;;;;;3.30;1.23;;;14.20;89.00;;;;;;5131696;28;20074;-70
2021/05/11 14:34:09;;;;;;;1.93;1.30;;;14.20;88.70;;;;;;5132167;28;20039;-69
2021/05/11 14:36:35;;;;;;;2.70;1.20;;;14.20;88.70;;;;;;5130993;28;20054;-69
2021/05/11 14:39:01;;;;;;;2.47;1.10;;;14.30;89.00;;;;;;5132042;28;20447;-68
2021/05/11 14:41:27;;;;;;;1.97;1.37;;;14.40;89.10;;;;;;5131909;27;20187;-68
2021/05/11 14:43:53;;;;;;;3.50;1.57;;;14.40;89.30;;;;;;5135620;27;20533;-69
2021/05/11 14:46:19;;;;;;;3.07;1.30;;;14.50;89.40;;;;;;5136288;27;20051;-68
2021/05/11 14:48:45;;;;;;;2.17;1.47;;;14.60;89.20;;;;;;5135748;27;20477;-69
2021/05/11 14:51:11;;;;;;;2.77;1.50;;;14.60;88.90;;;;;;5135451;27;20051;-69
2021/05/11 14:53:37;;;;;;;1.73;1.50;;;14.70;88.90;;;;;;5136184;27;20043;-69
2021/05/11 14:56:04;;;;;;;3.60;1.87;;;14.70;88.80;;;;;;5136036;27;20099;-69
2021/05/11 14:58:30;;;;;;;5.37;1.90;;;14.70;88.90;;;;;;5135238;27;20399;-69
2021/05/11 15:00:56;;;;;;;2.30;1.90;;;14.70;89.10;;;;;;5135977;27;20066;-69
2021/05/11 15:03:21;;;;;;;3.30;2.33;;;14.70;89.20;;;;;;5136062;27;20376;-70
2021/05/11 15:05:47;;;;;;;5.83;2.13;;;14.70;89.20;;;;;;5135145;27;20062;-69
2021/05/11 15:08:13;;;;;;;2.53;2.17;;;14.60;89.40;;;;;;5135832;27;20054;-69
2021/05/11 15:10:38;;;;;;;2.77;2.13;;;14.60;89.80;;;;;;5136208;27;20047;-69
2021/05/11 15:13:04;;;;;;;3.67;2.10;;;14.60;90.00;;;;;;5134857;27;20463;-69
2021/05/11 15:15:32;;;;;;;3.17;2.13;;;14.70;90.10;;;;;;5135810;27;20054;-69
2021/05/11 15:18:00;;;;;;;4.37;2.27;;;14.70;90.10;;;;;;5135710;27;20043;-69
2021/05/11 15:20:26;;;;;;;3.50;1.90;;;14.70;90.00;;;;;;5134782;27;20497;-69
2021/05/11 15:22:52;;;;;;;3.37;1.83;;;14.70;89.70;;;;;;5135686;27;20058;-70
2021/05/11 15:25:21;;;;;;;3.83;2.00;;;14.60;89.00;;;;;;5135730;27;20039;-69
2021/05/11 15:27:53;;;;;;;5.23;2.27;;;14.50;88.70;;;;;;5134847;27;20403;-69
2021/05/11 15:30:19;;;;;;;3.23;2.10;;;14.50;89.00;;;;;;5135776;27;20341;-69
2021/05/11 15:32:56;;;;;;;4.47;2.47;;;14.40;89.00;;;;;;5134512;27;20047;-69
2021/05/11 15:35:24;;;;;;;4.60;2.00;;;14.30;89.40;;;;;;5135389;27;20054;-69
2021/05/11 15:37:53;;;;;;;3.13;1.10;;;14.30;89.40;;;;;;5135004;27;20124;-69
2021/05/11 15:40:21;;;;;;;4.27;2.50;;;14.30;89.20;;;;;;5134393;27;20047;-69
2021/05/11 15:42:47;;;;;;;2.47;1.40;;;14.30;89.10;;;;;;5135199;27;20061;-70
2021/05/11 15:45:13;;;;;;;4.20;1.83;;;14.30;89.00;;;;;;5134836;27;20054;-68
2021/05/11 15:47:52;;;;;;;3.30;1.67;;;14.30;88.70;;;;;;5134477;27;20051;-68
2021/05/11 15:50:29;;;;;;;4.10;2.07;;;14.30;88.60;;;;;;5135325;27;20108;-68
2021/05/11 15:53:01;;;;;;;4.30;2.77;;;14.30;88.80;;;;;;5134780;27;20075;-68
2021/05/11 15:55:28;;;;;;;5.03;2.07;;;14.30;88.90;;;;;;5133658;27;20047;-68
2021/05/11 15:57:54;;;;;;;4.90;2.43;;;14.20;89.00;;;;;;5134435;27;20055;-69
2021/05/11 16:00:20;;;;;;;3.93;2.20;;;14.20;88.80;;;;;;5134766;27;20050;-69
2021/05/11 16:02:46;;;;;;;4.30;2.43;;;14.20;88.90;;;;;;5133922;27;20558;-69
2021/05/11 16:05:13;;;;;;;4.20;2.73;;;14.20;89.00;;;;;;5135205;27;20047;-69
2021/05/11 16:07:39;;;;;;;4.70;1.90;;;14.20;88.70;;;;;;5135004;27;20043;-68
2021/05/11 16:10:07;;;;;;;3.90;2.30;;;14.20;88.60;;;;;;5134224;27;20144;-68
2021/05/11 16:12:32;;;;;;;7.80;2.33;;;14.20;88.40;;;;;;5134685;27;20050;-68
2021/05/11 16:15:00;;;;;;;4.47;2.17;;;14.10;88.30;;;;;;5133632;27;20051;-68
2021/05/11 16:17:27;;;;;;;5.80;2.37;;;14.20;88.10;;;;;;5134545;27;20111;-68
2021/05/11 16:19:52;;;;;;;4.90;2.70;;;14.20;87.80;;;;;;5134667;27;20047;-68
2021/05/11 16:22:18;;;;;;;4.17;2.17;;;14.20;87.70;;;;;;5133750;27;20131;-68
2021/05/11 16:24:43;;;;;;;5.53;2.83;;;14.20;87.60;;;;;;5134631;27;20403;-69
2021/05/11 16:27:09;;;;;;;5.73;3.03;;;14.20;87.30;;;;;;5134752;27;20047;-69
2021/05/11 16:29:35;;;;;;;3.30;2.10;;;14.10;87.40;;;;;;5133454;27;20126;-69
2021/05/11 16:32:00;;;;;;;8.47;2.93;;;14.10;87.70;;;;;;5134386;27;20055;-70
2021/05/11 16:34:27;;;;;;;5.00;2.50;;;14.10;87.90;;;;;;5134071;27;20407;-69
2021/05/11 16:36:54;;;;;;;5.03;2.90;;;14.10;88.20;;;;;;5133395;27;20426;-69
2021/05/11 16:39:20;;;;;;;5.60;3.03;;;14.10;88.40;;;;;;5134306;27;20047;-69
2021/05/11 16:41:46;;;;;;;8.47;7.40;;;14.10;88.50;;;;;;5134351;27;20201;-70
2021/05/11 16:44:12;;;;;;;6.90;3.40;;;14.10;88.60;;;;;;5133755;27;20067;-69
2021/05/11 16:46:38;;;;;;;4.77;3.67;;;14.10;88.70;;;;;;5134441;27;20043;-70
2021/05/11 16:49:04;;;;;;;4.53;3.23;;;14.10;88.80;;;;;;5134076;27;20065;-69
2021/05/11 16:51:30;;;;;;;4.60;3.00;;;14.10;88.80;;;;;;5133165;27;20111;-69
2021/05/11 16:53:56;;;;;;;6.80;3.27;;;14.10;88.60;;;;;;5133668;27;20047;-69